Time;durP1;ratioP1;P1;durP2;ratioP2;P2;SDS_P1;SDS_P2;PMS_P1;PMS_P2;Temp;Humidity;BMP_temperature;BMP_pressure;BME280_temperature;BME280_humidity;BME280_pressure;Samples;Min_cycle;Max_cycle;Signal;HPM_P1;HPM_P2
2020/12/14 00:01:44;;;;;;;12.15;2.13;;;19.50;93.50;;;;;;5051203;28;20398;-87
2020/12/14 00:04:11;;;;;;;13.55;2.10;;;19.70;93.80;;;;;;5051043;28;20380;-88
2020/12/14 00:06:38;;;;;;;12.75;2.50;;;19.90;93.60;;;;;;5050772;28;20383;-89
2020/12/14 00:09:06;;;;;;;11.93;2.28;;;20.10;93.90;;;;;;5032456;28;20834;-88
2020/12/14 00:11:36;;;;;;;11.80;2.00;;;20.20;92.70;;;;;;5050566;28;20372;-87
2020/12/14 00:14:04;;;;;;;10.40;1.70;;;20.50;92.00;;;;;;5044811;28;20851;-88
2020/12/14 00:16:40;;;;;;;10.75;1.67;;;20.60;88.90;;;;;;5052883;28;20871;-93
2020/12/14 00:19:07;;;;;;;10.03;2.17;;;20.70;85.60;;;;;;5060401;28;20409;-90
2020/12/14 00:21:34;;;;;;;8.45;1.90;;;21.00;89.10;;;;;;5044163;28;20388;-87
2020/12/14 00:24:01;;;;;;;11.20;1.98;;;21.10;85.40;;;;;;5046138;28;20428;-86
2020/12/14 00:26:28;;;;;;;14.30;1.70;;;21.10;85.00;;;;;;5054234;28;20386;-84
2020/12/14 00:28:56;;;;;;;8.45;1.73;;;21.10;83.20;;;;;;5049368;28;20403;-86
2020/12/14 00:31:23;;;;;;;14.70;2.50;;;21.30;85.40;;;;;;5049697;28;20391;-86
2020/12/14 00:33:50;;;;;;;7.60;1.83;;;21.60;85.70;;;;;;5049987;28;20410;-86
2020/12/14 00:36:17;;;;;;;10.57;1.83;;;21.70;78.00;;;;;;5049361;28;20391;-85
2020/12/14 00:38:45;;;;;;;10.07;1.83;;;21.70;83.40;;;;;;5051240;28;20376;-85
2020/12/14 00:41:18;;;;;;;9.52;1.85;;;21.80;78.90;;;;;;5048954;28;20415;-86
2020/12/14 00:43:46;;;;;;;11.88;2.42;;;22.00;79.20;;;;;;5049895;28;20474;-89
2020/12/14 00:46:14;;;;;;;10.50;2.05;;;22.40;77.30;;;;;;5049712;28;20457;-86
2020/12/14 00:48:41;;;;;;;9.32;1.90;;;22.90;75.70;;;;;;5050316;28;20459;-86
2020/12/14 00:51:09;;;;;;;15.63;2.55;;;23.10;78.10;;;;;;5052049;28;20388;-87
2020/12/14 00:53:37;;;;;;;14.65;2.22;;;23.10;72.00;;;;;;5032878;28;20410;-86
2020/12/14 00:56:05;;;;;;;11.68;2.25;;;23.00;74.10;;;;;;5059821;28;20461;-87
2020/12/14 00:58:33;;;;;;;11.18;2.55;;;22.80;74.00;;;;;;5069389;28;20903;-87
2020/12/14 01:01:00;;;;;;;10.65;2.22;;;22.60;75.30;;;;;;5052704;28;20378;-88
2020/12/14 01:03:27;;;;;;;10.35;1.75;;;22.30;73.10;;;;;;5069382;28;20362;-88
2020/12/14 01:05:54;;;;;;;13.82;2.40;;;22.00;74.40;;;;;;5068955;28;20386;-87
2020/12/14 01:08:21;;;;;;;11.60;1.95;;;21.90;75.10;;;;;;5069286;28;20469;-88
2020/12/14 01:10:49;;;;;;;10.00;2.03;;;21.90;77.60;;;;;;5069419;28;20880;-87
2020/12/14 01:13:17;;;;;;;14.55;2.25;;;21.90;77.80;;;;;;5052453;28;20455;-88
2020/12/14 01:15:44;;;;;;;14.05;2.22;;;21.80;76.50;;;;;;5070367;28;20737;-87
2020/12/14 01:18:11;;;;;;;10.65;2.15;;;21.70;78.20;;;;;;5069253;28;20865;-84
2020/12/14 01:20:41;;;;;;;12.80;2.17;;;21.70;76.40;;;;;;5068867;28;20382;-87
2020/12/14 01:23:09;;;;;;;14.35;2.47;;;21.90;77.20;;;;;;5071598;28;20461;-86
2020/12/14 01:25:36;;;;;;;11.98;2.03;;;22.00;76.50;;;;;;5073523;28;20378;-86
2020/12/14 01:28:06;;;;;;;10.63;2.03;;;22.00;75.50;;;;;;5044097;28;20411;-88
2020/12/14 01:30:36;;;;;;;11.50;2.10;;;22.00;75.40;;;;;;5060812;28;20396;-87
2020/12/14 01:33:03;;;;;;;8.32;2.08;;;22.10;78.60;;;;;;5065985;28;20406;-88
2020/12/14 01:35:30;;;;;;;10.70;2.15;;;22.20;76.90;;;;;;5069636;28;20362;-88
2020/12/14 01:37:57;;;;;;;10.40;2.17;;;22.20;77.40;;;;;;5065949;28;20382;-88
2020/12/14 01:40:24;;;;;;;14.02;2.22;;;22.30;77.20;;;;;;5050742;28;20523;-88
2020/12/14 01:42:51;;;;;;;11.88;2.80;;;22.30;77.00;;;;;;5069358;28;20393;-89
2020/12/14 01:45:18;;;;;;;9.80;1.92;;;22.30;75.30;;;;;;5051766;28;20393;-88
2020/12/14 01:47:49;;;;;;;14.82;2.38;;;22.30;76.60;;;;;;5070127;28;20407;-88
2020/12/14 01:50:16;;;;;;;12.10;2.65;;;22.30;76.00;;;;;;5067366;28;20495;-89
2020/12/14 01:52:45;;;;;;;13.23;2.47;;;22.20;75.60;;;;;;5012180;28;20385;-87
2020/12/14 01:55:18;;;;;;;10.97;2.37;;;22.10;76.00;;;;;;5029768;28;20381;-87
2020/12/14 01:57:46;;;;;;;12.18;2.22;;;22.10;77.90;;;;;;5011492;28;20497;-89
2020/12/14 02:00:13;;;;;;;13.68;2.80;;;22.10;79.40;;;;;;5012007;28;20895;-90
2020/12/14 02:02:40;;;;;;;9.45;1.83;;;22.00;78.20;;;;;;5042670;28;20457;-88
2020/12/14 02:05:08;;;;;;;13.23;2.45;;;21.90;78.30;;;;;;5039759;28;20376;-88
2020/12/14 02:07:35;;;;;;;13.25;2.35;;;21.90;78.50;;;;;;5032825;28;20438;-89
2020/12/14 02:10:03;;;;;;;14.63;2.53;;;21.80;77.50;;;;;;5051113;28;20894;-87
2020/12/14 02:12:30;;;;;;;20.38;3.15;;;21.70;78.90;;;;;;5057511;28;20379;-87
2020/12/14 02:14:58;;;;;;;14.93;2.90;;;21.70;79.70;;;;;;5058894;28;20390;-87
2020/12/14 02:17:26;;;;;;;15.23;2.47;;;21.60;80.20;;;;;;5052329;28;20470;-86
2020/12/14 02:19:55;;;;;;;14.25;2.80;;;21.70;81.10;;;;;;5052131;28;20431;-89
2020/12/14 02:22:27;;;;;;;15.20;2.72;;;21.80;79.70;;;;;;5060544;28;20381;-90
2020/12/14 02:24:54;;;;;;;21.63;3.03;;;21.80;78.20;;;;;;5066652;28;20415;-87
2020/12/14 02:27:22;;;;;;;13.07;3.00;;;21.80;77.60;;;;;;5043255;28;20388;-89
2020/12/14 02:29:49;;;;;;;14.10;2.67;;;21.60;78.20;;;;;;5034962;28;20396;-89
2020/12/14 02:32:17;;;;;;;16.70;2.80;;;21.70;80.70;;;;;;5039359;28;20413;-87
2020/12/14 02:34:45;;;;;;;16.65;3.05;;;21.90;79.60;;;;;;5037306;28;20471;-88
2020/12/14 02:37:15;;;;;;;15.15;2.67;;;22.10;79.60;;;;;;5055298;28;20436;-87
2020/12/14 02:39:42;;;;;;;16.83;3.00;;;22.30;78.10;;;;;;5072661;28;20398;-88
2020/12/14 02:42:12;;;;;;;13.90;2.40;;;22.70;76.90;;;;;;5045721;28;20890;-89
2020/12/14 02:44:39;;;;;;;17.65;2.80;;;23.00;75.40;;;;;;5033921;28;20398;-90
2020/12/14 02:47:07;;;;;;;12.95;2.28;;;23.20;74.80;;;;;;5034508;28;20372;-87
2020/12/14 02:49:38;;;;;;;13.93;2.60;;;23.10;71.80;;;;;;5052846;28;20380;-88
2020/12/14 02:52:07;;;;;;;13.18;2.30;;;22.80;72.80;;;;;;5054273;28;20372;-89
2020/12/14 02:54:34;;;;;;;12.23;2.80;;;22.60;73.30;;;;;;5035318;28;20424;-89
2020/12/14 02:57:02;;;;;;;16.90;2.50;;;22.50;73.20;;;;;;5054796;28;20382;-88
2020/12/14 02:59:29;;;;;;;12.63;2.60;;;22.40;74.20;;;;;;5070315;28;20892;-89
2020/12/14 03:01:56;;;;;;;14.77;2.70;;;22.50;75.20;;;;;;5072454;28;20374;-88
2020/12/14 03:04:28;;;;;;;13.98;2.70;;;22.40;76.60;;;;;;5064328;28;20378;-88
2020/12/14 03:06:55;;;;;;;16.13;2.97;;;22.40;75.80;;;;;;5056486;28;20413;-89
2020/12/14 03:09:22;;;;;;;17.35;2.95;;;22.20;76.70;;;;;;5074539;28;20402;-88
2020/12/14 03:11:50;;;;;;;19.70;3.27;;;22.00;82.30;;;;;;5076600;28;20452;-90
2020/12/14 03:14:18;;;;;;;16.10;2.60;;;21.00;88.90;;;;;;5059012;28;20425;-91
2020/12/14 03:16:47;;;;;;;16.20;2.75;;;20.30;91.70;;;;;;5073685;28;20374;-90
2020/12/14 03:19:14;;;;;;;15.88;2.40;;;19.90;93.70;;;;;;5074423;28;20389;-89
2020/12/14 03:21:42;;;;;;;13.02;2.58;;;19.70;93.40;;;;;;5074963;28;20370;-89
2020/12/14 03:24:09;;;;;;;13.20;2.25;;;19.60;93.00;;;;;;5055233;28;20428;-89
2020/12/14 03:26:37;;;;;;;14.52;2.70;;;19.60;93.90;;;;;;5072532;28;20410;-88
2020/12/14 03:29:04;;;;;;;15.02;2.88;;;19.70;92.90;;;;;;5072874;28;20944;-89
2020/12/14 03:31:32;;;;;;;18.02;2.90;;;19.80;93.80;;;;;;5052817;28;20945;-85
2020/12/14 03:34:00;;;;;;;17.37;3.43;;;20.00;93.30;;;;;;5052873;28;20759;-89
2020/12/14 03:36:27;;;;;;;17.47;2.87;;;20.10;92.80;;;;;;5052691;28;20376;-89
2020/12/14 03:38:55;;;;;;;19.17;3.00;;;20.10;93.10;;;;;;5034316;28;20889;-90
2020/12/14 03:41:24;;;;;;;18.13;3.22;;;20.10;92.40;;;;;;5034959;28;20847;-89
2020/12/14 03:43:51;;;;;;;17.83;2.90;;;20.10;92.60;;;;;;5053563;28;20380;-87
2020/12/14 03:46:24;;;;;;;17.23;3.40;;;20.10;91.90;;;;;;5051716;28;20886;-88
2020/12/14 03:48:58;;;;;;;18.42;3.55;;;20.20;92.00;;;;;;5052082;28;20925;-88
2020/12/14 03:51:25;;;;;;;17.45;2.97;;;20.40;92.20;;;;;;5034250;28;20752;-85
2020/12/14 03:53:53;;;;;;;15.13;3.13;;;20.50;92.60;;;;;;5051853;28;20882;-87
2020/12/14 03:56:24;;;;;;;17.80;2.92;;;20.70;92.30;;;;;;5033885;28;20407;-86
2020/12/14 03:58:51;;;;;;;18.10;3.38;;;21.00;90.20;;;;;;5050435;28;20380;-87
2020/12/14 04:01:26;;;;;;;17.53;3.17;;;21.10;90.60;;;;;;5056851;28;20386;-86
2020/12/14 04:03:54;;;;;;;18.67;3.38;;;21.20;89.80;;;;;;5070374;28;20374;-85
2020/12/14 04:06:27;;;;;;;17.17;3.55;;;21.30;87.50;;;;;;5070486;28;20385;-85
2020/12/14 04:08:55;;;;;;;17.95;3.13;;;21.20;89.40;;;;;;5070135;28;20737;-87
2020/12/14 04:11:22;;;;;;;17.92;3.00;;;21.30;89.30;;;;;;5069964;28;20508;-85
2020/12/14 04:13:50;;;;;;;16.25;3.25;;;21.30;86.10;;;;;;5050770;28;20374;-86
2020/12/14 04:16:17;;;;;;;14.47;2.87;;;21.20;87.20;;;;;;5050182;28;20380;-85
2020/12/14 04:18:45;;;;;;;14.98;2.90;;;21.00;86.60;;;;;;5051146;28;20398;-86
2020/12/14 04:21:12;;;;;;;17.88;2.97;;;21.00;87.10;;;;;;5056553;28;20411;-91
2020/12/14 04:23:39;;;;;;;15.52;2.85;;;20.90;87.30;;;;;;5036585;28;20472;-90
2020/12/14 04:26:06;;;;;;;22.20;3.55;;;20.80;88.40;;;;;;5051140;28;20893;-92
2020/12/14 04:28:33;;;;;;;16.20;3.30;;;20.80;88.50;;;;;;5054477;28;20408;-91
2020/12/14 04:31:00;;;;;;;16.37;2.70;;;20.70;88.90;;;;;;5052618;28;20854;-93
2020/12/14 04:33:28;;;;;;;16.05;2.60;;;20.60;86.20;;;;;;5034771;28;20388;-91
2020/12/14 04:35:57;;;;;;;15.32;2.65;;;20.70;86.50;;;;;;5059995;28;20386;-92
2020/12/14 04:38:25;;;;;;;14.52;2.63;;;20.80;85.50;;;;;;5052865;28;20392;-90
2020/12/14 04:40:52;;;;;;;15.90;3.10;;;20.90;81.80;;;;;;5052562;28;20422;-91
2020/12/14 04:43:20;;;;;;;15.18;2.97;;;21.00;82.50;;;;;;5034030;28;20382;-91
2020/12/14 04:45:50;;;;;;;13.85;2.40;;;21.10;84.10;;;;;;5040958;28;20464;-90
2020/12/14 04:48:17;;;;;;;16.13;2.95;;;21.30;82.20;;;;;;5065809;28;20406;-93
2020/12/14 04:50:45;;;;;;;17.30;2.78;;;21.30;81.10;;;;;;5056512;28;20378;-94
2020/12/14 04:53:12;;;;;;;14.15;2.80;;;21.30;81.80;;;;;;5073735;28;20378;-90
2020/12/14 04:55:39;;;;;;;20.42;3.25;;;21.20;81.70;;;;;;5071336;28;20434;-92
2020/12/14 04:58:07;;;;;;;15.47;2.87;;;21.10;82.10;;;;;;5054047;28;20397;-91
2020/12/14 05:00:35;;;;;;;20.63;3.50;;;21.10;82.40;;;;;;5072217;28;20374;-91
2020/12/14 05:03:03;;;;;;;21.33;3.25;;;21.20;82.70;;;;;;5073675;28;20431;-92
2020/12/14 05:05:31;;;;;;;24.35;3.70;;;21.10;82.50;;;;;;5067739;28;20376;-92
2020/12/14 05:07:59;;;;;;;19.25;3.28;;;21.20;84.40;;;;;;5036585;28;20816;-95
2020/12/14 05:10:28;;;;;;;15.45;2.63;;;21.20;82.10;;;;;;5040159;28;20385;-88
2020/12/14 05:12:56;;;;;;;15.37;2.87;;;21.10;79.00;;;;;;5046946;28;20375;-88
2020/12/14 05:15:31;;;;;;;16.40;2.80;;;20.80;81.40;;;;;;5038887;28;20403;-89
2020/12/14 05:18:13;;;;;;;15.88;2.90;;;20.40;83.80;;;;;;5037164;28;20385;-88
2020/12/14 05:20:42;;;;;;;14.77;2.77;;;20.00;86.10;;;;;;5045196;28;20903;-91
2020/12/14 05:23:11;;;;;;;15.40;3.00;;;19.90;87.20;;;;;;5040955;28;20869;-95
2020/12/14 05:25:38;;;;;;;13.25;2.58;;;19.80;87.80;;;;;;5018587;28;20396;-93
2020/12/14 05:28:16;;;;;;;17.92;3.65;;;19.80;87.90;;;;;;5040287;28;20526;-89
2020/12/14 05:30:51;;;;;;;14.00;2.80;;;19.90;89.00;;;;;;5022809;28;20418;-92
2020/12/14 05:33:23;;;;;;;17.42;3.00;;;20.00;88.10;;;;;;5045201;28;20445;-92
2020/12/14 05:35:52;;;;;;;18.13;3.10;;;20.20;88.50;;;;;;5025241;28;20477;-90
2020/12/14 05:38:28;;;;;;;16.50;3.38;;;20.30;88.60;;;;;;5033971;28;20994;-92
2020/12/14 05:40:56;;;;;;;17.02;2.75;;;20.40;87.50;;;;;;5034424;28;20380;-90
2020/12/14 05:43:31;;;;;;;22.88;3.13;;;20.60;87.60;;;;;;5044863;28;20431;-90
2020/12/14 05:46:16;;;;;;;20.25;3.33;;;20.60;87.30;;;;;;5023720;28;20455;-93
2020/12/14 05:48:43;;;;;;;18.20;3.47;;;20.70;88.00;;;;;;5036403;28;20425;-88
2020/12/14 05:51:13;;;;;;;17.90;3.13;;;20.80;87.90;;;;;;5027983;28;20957;-89
2020/12/14 05:53:55;;;;;;;14.68;2.92;;;20.70;88.20;;;;;;5037028;28;20482;-93
2020/12/14 05:56:26;;;;;;;16.25;2.97;;;20.90;87.90;;;;;;5033034;28;20391;-89
2020/12/14 05:59:02;;;;;;;20.77;3.30;;;20.90;88.10;;;;;;5048846;28;20880;-96
2020/12/14 06:01:30;;;;;;;17.67;3.15;;;21.00;88.20;;;;;;5054881;28;20413;-94
2020/12/14 06:03:59;;;;;;;19.00;3.67;;;21.20;87.90;;;;;;5024980;28;20489;-90
2020/12/14 06:06:35;;;;;;;16.90;2.92;;;21.30;85.50;;;;;;5036282;28;20415;-89
2020/12/14 06:09:06;;;;;;;21.67;3.55;;;21.40;85.80;;;;;;5076004;28;20805;-94
2020/12/14 06:11:37;;;;;;;17.43;3.37;;;21.40;83.90;;;;;;5039733;28;20486;-91
2020/12/14 06:14:05;;;;;;;17.45;2.90;;;21.50;83.40;;;;;;5035934;28;20371;-92
2020/12/14 06:16:39;;;;;;;15.93;3.13;;;21.40;81.90;;;;;;5054855;28;20487;-91
2020/12/14 06:19:06;;;;;;;11.80;2.30;;;21.40;83.40;;;;;;5051442;28;20496;-91
2020/12/14 06:21:36;;;;;;;18.40;3.42;;;21.30;80.10;;;;;;5055187;28;20391;-91
2020/12/14 06:24:05;;;;;;;17.63;2.92;;;21.30;80.20;;;;;;5036936;28;20387;-92
2020/12/14 06:26:36;;;;;;;18.23;2.90;;;21.30;79.00;;;;;;5055730;28;20364;-88
2020/12/14 06:29:03;;;;;;;13.33;2.83;;;21.30;79.80;;;;;;5054978;28;20407;-92
2020/12/14 06:31:39;;;;;;;13.57;2.60;;;21.30;80.40;;;;;;5057094;28;20403;-91
2020/12/14 06:34:32;;;;;;;16.63;2.88;;;21.20;81.30;;;;;;5054381;28;20376;-91
2020/12/14 06:37:03;;;;;;;16.85;2.97;;;21.40;81.40;;;;;;5039388;28;20372;-90
2020/12/14 06:39:40;;;;;;;16.90;3.30;;;21.40;81.30;;;;;;5055052;28;20985;-87
2020/12/14 06:42:10;;;;;;;21.85;2.85;;;21.40;81.50;;;;;;5021557;28;20503;-87
2020/12/14 06:45:03;;;;;;;12.65;2.72;;;21.40;81.00;;;;;;5033975;28;20390;-87
2020/12/14 06:47:43;;;;;;;15.57;3.28;;;21.20;81.20;;;;;;5033209;28;20416;-87
2020/12/14 06:50:22;;;;;;;16.20;2.90;;;20.80;83.20;;;;;;5033799;28;20916;-87
2020/12/14 06:52:49;;;;;;;13.60;2.90;;;20.50;84.70;;;;;;5051411;28;20733;-85
2020/12/14 06:55:16;;;;;;;17.63;2.83;;;20.30;85.70;;;;;;5061049;28;20386;-87
2020/12/14 06:57:43;;;;;;;17.40;3.33;;;20.20;88.70;;;;;;5057609;28;20409;-86
2020/12/14 07:00:17;;;;;;;14.13;3.10;;;20.00;88.20;;;;;;5049659;28;21001;-88
2020/12/14 07:02:44;;;;;;;14.38;2.80;;;20.00;89.70;;;;;;5053353;28;20425;-86
2020/12/14 07:05:37;;;;;;;19.70;3.28;;;20.00;90.20;;;;;;5052454;28;20387;-88
2020/12/14 07:08:04;;;;;;;18.33;3.25;;;20.00;90.00;;;;;;5030324;28;20430;-87
2020/12/14 07:10:31;;;;;;;17.92;3.40;;;19.90;90.30;;;;;;5038117;28;20503;-87
2020/12/14 07:13:00;;;;;;;18.35;3.13;;;19.90;90.50;;;;;;5050286;28;20391;-86
2020/12/14 07:15:36;;;;;;;21.50;3.73;;;19.90;90.60;;;;;;5029409;28;20435;-86
2020/12/14 07:18:14;;;;;;;24.15;4.05;;;19.90;90.50;;;;;;5064868;28;20386;-87
2020/12/14 07:20:56;;;;;;;19.85;3.55;;;19.90;90.50;;;;;;5065399;28;20392;-87
2020/12/14 07:23:26;;;;;;;18.65;3.38;;;19.90;90.50;;;;;;5051037;28;20372;-86
2020/12/14 07:25:55;;;;;;;20.67;3.15;;;20.00;90.40;;;;;;5051658;28;20387;-87
2020/12/14 07:28:42;;;;;;;20.20;3.38;;;20.00;90.50;;;;;;5051933;28;20433;-87
2020/12/14 07:31:15;;;;;;;16.00;3.42;;;20.10;90.20;;;;;;5054022;28;20386;-86
2020/12/14 07:33:53;;;;;;;18.40;3.63;;;20.10;90.40;;;;;;5065456;28;20451;-86
2020/12/14 07:36:21;;;;;;;14.95;2.95;;;20.10;90.20;;;;;;5034836;28;20391;-88
2020/12/14 07:38:55;;;;;;;19.25;3.70;;;20.20;90.10;;;;;;5060132;28;20390;-86
2020/12/14 07:41:23;;;;;;;17.48;3.63;;;20.20;89.70;;;;;;5051216;28;20375;-86
2020/12/14 07:43:55;;;;;;;18.48;3.35;;;20.30;90.00;;;;;;5051170;28;20390;-87
2020/12/14 07:46:25;;;;;;;19.92;2.85;;;20.20;89.00;;;;;;5050936;28;20387;-90
2020/12/14 07:49:01;;;;;;;15.70;3.63;;;20.20;89.80;;;;;;5056640;28;20413;-89
2020/12/14 07:51:29;;;;;;;14.55;2.88;;;20.30;88.60;;;;;;5051751;28;20445;-88
2020/12/14 07:54:18;;;;;;;21.07;3.57;;;20.20;87.60;;;;;;5050266;28;20376;-85
2020/12/14 07:57:06;;;;;;;17.98;3.20;;;20.20;88.10;;;;;;5050595;28;20380;-85
2020/12/14 07:59:34;;;;;;;19.17;3.17;;;20.20;87.50;;;;;;5032002;28;20743;-86
2020/12/14 08:02:08;;;;;;;15.57;3.45;;;20.30;87.80;;;;;;5050353;28;20824;-86
2020/12/14 08:04:35;;;;;;;18.95;3.22;;;20.30;87.10;;;;;;5050479;28;20380;-85
2020/12/14 08:07:03;;;;;;;17.45;3.40;;;20.30;86.70;;;;;;5056999;28;20398;-88
2020/12/14 08:09:34;;;;;;;19.63;3.47;;;20.30;86.20;;;;;;5065545;28;20547;-85
2020/12/14 08:12:03;;;;;;;15.10;2.80;;;20.30;85.50;;;;;;5071869;28;20458;-87
2020/12/14 08:14:30;;;;;;;15.20;3.07;;;20.20;85.20;;;;;;5071595;28;20394;-90
2020/12/14 08:16:58;;;;;;;22.98;4.10;;;20.20;84.80;;;;;;5066056;28;20382;-86
2020/12/14 08:19:25;;;;;;;18.58;3.60;;;20.10;85.60;;;;;;5054561;28;20391;-87
2020/12/14 08:22:14;;;;;;;16.75;3.35;;;20.10;86.30;;;;;;5032430;28;20755;-86
2020/12/14 08:24:42;;;;;;;19.15;3.60;;;20.10;86.70;;;;;;5049869;28;20369;-87
2020/12/14 08:27:24;;;;;;;20.67;4.13;;;20.00;87.00;;;;;;5050035;28;20859;-89
2020/12/14 08:30:11;;;;;;;21.27;3.30;;;20.00;87.40;;;;;;5057685;28;20390;-86
2020/12/14 08:32:38;;;;;;;19.70;3.03;;;20.00;88.00;;;;;;5042888;28;20419;-86
2020/12/14 08:35:24;;;;;;;17.13;2.83;;;19.90;88.30;;;;;;5052566;28;20491;-83
2020/12/14 08:38:00;;;;;;;22.83;3.63;;;19.90;88.50;;;;;;5045838;28;20407;-83
2020/12/14 08:40:27;;;;;;;19.13;3.10;;;19.90;88.90;;;;;;5054450;28;20394;-83
2020/12/14 08:42:54;;;;;;;22.90;3.70;;;19.90;89.40;;;;;;5068940;28;20382;-83
2020/12/14 08:45:21;;;;;;;22.55;3.97;;;19.80;89.50;;;;;;5044238;28;20431;-84
2020/12/14 08:47:48;;;;;;;23.20;4.10;;;19.90;90.00;;;;;;5053535;28;20839;-84
2020/12/14 08:50:17;;;;;;;22.48;3.72;;;19.80;90.00;;;;;;5038392;28;20413;-83
2020/12/14 08:52:44;;;;;;;17.75;3.50;;;19.80;90.00;;;;;;5036019;28;20477;-83
2020/12/14 08:55:10;;;;;;;20.42;3.88;;;19.80;90.00;;;;;;5040700;28;20732;-84
2020/12/14 08:57:37;;;;;;;23.08;3.45;;;19.80;90.30;;;;;;5040883;28;20912;-84
2020/12/14 09:00:13;;;;;;;19.27;4.03;;;19.80;90.40;;;;;;5040796;28;20426;-83
2020/12/14 09:02:41;;;;;;;19.93;3.77;;;19.70;90.50;;;;;;5026006;28;20752;-84
2020/12/14 09:05:16;;;;;;;19.92;3.50;;;19.70;90.70;;;;;;5008204;28;20405;-84
2020/12/14 09:07:43;;;;;;;19.13;3.65;;;19.70;90.70;;;;;;5043007;28;20762;-84
2020/12/14 09:10:18;;;;;;;19.60;3.75;;;19.70;90.80;;;;;;5043759;28;20418;-83
2020/12/14 09:12:45;;;;;;;19.53;3.87;;;19.70;91.00;;;;;;5056968;28;20921;-84
2020/12/14 09:15:12;;;;;;;20.85;3.47;;;19.70;90.90;;;;;;5047422;28;20479;-84
2020/12/14 09:17:45;;;;;;;20.23;3.25;;;19.70;91.00;;;;;;5036627;28;21751;-84
2020/12/14 09:20:12;;;;;;;19.35;3.65;;;19.60;91.10;;;;;;5037516;28;20843;-83
2020/12/14 09:22:39;;;;;;;16.42;3.55;;;19.60;91.20;;;;;;5045112;28;20390;-83
2020/12/14 09:25:07;;;;;;;20.27;3.50;;;19.60;91.20;;;;;;5048676;28;20431;-83
2020/12/14 09:27:34;;;;;;;28.13;4.47;;;19.60;91.20;;;;;;5044566;28;20396;-83
2020/12/14 09:30:01;;;;;;;21.38;3.70;;;19.60;91.40;;;;;;5054541;28;20459;-83
2020/12/14 09:32:28;;;;;;;17.13;3.38;;;19.60;91.30;;;;;;5045854;28;20449;-83
2020/12/14 09:34:55;;;;;;;23.50;4.28;;;19.60;91.30;;;;;;5045524;28;20383;-84
2020/12/14 09:37:22;;;;;;;18.05;2.97;;;19.60;91.30;;;;;;5045675;28;20868;-85
2020/12/14 09:39:49;;;;;;;20.75;3.53;;;19.60;91.40;;;;;;5060606;28;20396;-84
2020/12/14 09:42:16;;;;;;;18.83;3.83;;;19.70;91.40;;;;;;5065993;28;20443;-83
2020/12/14 09:44:43;;;;;;;20.70;3.80;;;19.60;91.40;;;;;;5065641;28;20377;-84
2020/12/14 09:47:10;;;;;;;21.73;3.67;;;19.60;91.60;;;;;;5052817;28;20419;-84
2020/12/14 09:49:37;;;;;;;23.73;3.65;;;19.60;91.60;;;;;;5045670;28;20400;-83
2020/12/14 09:52:04;;;;;;;22.52;3.88;;;19.60;91.80;;;;;;5036140;28;20398;-83
2020/12/14 09:54:31;;;;;;;17.83;3.47;;;19.60;91.90;;;;;;5021147;28;20902;-82
2020/12/14 09:56:58;;;;;;;21.17;3.15;;;19.60;92.00;;;;;;5041360;28;20392;-84
2020/12/14 09:59:25;;;;;;;24.48;3.80;;;19.50;91.90;;;;;;5043205;28;20815;-84
2020/12/14 10:01:52;;;;;;;21.17;3.83;;;19.60;92.20;;;;;;5041173;28;20427;-83
2020/12/14 10:04:19;;;;;;;21.40;3.78;;;19.60;92.30;;;;;;5043127;28;20807;-83
2020/12/14 10:06:48;;;;;;;15.95;3.25;;;19.50;92.40;;;;;;5029871;28;20409;-83
2020/12/14 10:09:15;;;;;;;18.88;3.33;;;19.40;93.00;;;;;;5045208;28;20892;-85
2020/12/14 10:11:42;;;;;;;19.08;3.28;;;19.40;93.30;;;;;;5027382;28;20392;-83
2020/12/14 10:14:09;;;;;;;20.00;3.28;;;19.30;93.50;;;;;;5043050;28;20457;-83
2020/12/14 10:16:36;;;;;;;20.23;3.92;;;19.20;93.50;;;;;;5034681;28;20420;-84
2020/12/14 10:19:05;;;;;;;23.98;3.83;;;19.20;93.70;;;;;;5044058;28;20759;-84
2020/12/14 10:21:32;;;;;;;18.83;3.85;;;19.10;94.00;;;;;;5045528;28;20383;-84
2020/12/14 10:23:59;;;;;;;20.67;3.72;;;19.10;94.30;;;;;;5043743;28;20490;-84
2020/12/14 10:26:26;;;;;;;16.83;3.20;;;19.10;94.30;;;;;;5042674;28;20393;-84
2020/12/14 10:28:53;;;;;;;18.75;3.55;;;19.10;94.40;;;;;;5044244;28;20457;-85
2020/12/14 10:31:20;;;;;;;18.08;3.67;;;19.10;94.40;;;;;;5044418;28;20434;-85
2020/12/14 10:33:47;;;;;;;16.33;3.50;;;19.10;94.30;;;;;;5045416;28;20384;-84
2020/12/14 10:36:18;;;;;;;20.38;3.58;;;19.10;94.40;;;;;;5031946;28;20487;-84
2020/12/14 10:38:46;;;;;;;21.02;3.72;;;19.10;94.40;;;;;;5044617;28;20415;-84
2020/12/14 10:41:15;;;;;;;14.07;3.05;;;19.10;94.60;;;;;;5048635;28;20380;-84
2020/12/14 10:43:42;;;;;;;19.80;3.03;;;19.10;94.70;;;;;;5048672;28;20450;-84
2020/12/14 10:46:09;;;;;;;21.13;3.38;;;19.10;94.70;;;;;;5048718;28;20388;-84
2020/12/14 10:48:37;;;;;;;19.75;3.58;;;19.10;94.50;;;;;;5044786;28;20473;-84
2020/12/14 10:51:04;;;;;;;16.45;3.70;;;19.10;94.30;;;;;;5048554;28;20384;-84
2020/12/14 10:53:31;;;;;;;21.50;3.37;;;19.10;94.40;;;;;;5046866;28;21083;-85
2020/12/14 10:55:59;;;;;;;20.63;3.97;;;19.10;94.40;;;;;;5051880;28;20402;-84
2020/12/14 10:58:26;;;;;;;23.48;4.30;;;19.10;94.40;;;;;;5041163;28;20408;-84
2020/12/14 11:00:53;;;;;;;16.85;3.55;;;19.10;94.40;;;;;;5060602;28;20869;-84
2020/12/14 11:03:23;;;;;;;19.45;3.20;;;19.10;94.40;;;;;;5068363;28;20467;-84
2020/12/14 11:05:57;;;;;;;22.38;3.47;;;19.10;94.40;;;;;;5051681;28;20441;-84
2020/12/14 11:08:27;;;;;;;18.60;3.58;;;19.10;94.40;;;;;;5048745;28;20414;-84
2020/12/14 11:10:54;;;;;;;17.93;3.47;;;19.20;94.30;;;;;;5032506;28;20395;-84
2020/12/14 11:13:21;;;;;;;23.07;3.80;;;19.20;94.30;;;;;;5047443;28;20388;-84
2020/12/14 11:15:48;;;;;;;20.60;3.60;;;19.20;94.50;;;;;;5046952;28;22004;-86
2020/12/14 11:18:15;;;;;;;26.83;3.67;;;19.10;94.60;;;;;;5048009;28;20392;-87
2020/12/14 11:20:42;;;;;;;18.65;3.85;;;19.00;94.80;;;;;;5059051;28;20385;-84
2020/12/14 11:23:09;;;;;;;24.65;4.15;;;19.00;95.10;;;;;;5045435;28;21166;-84
2020/12/14 11:25:36;;;;;;;21.80;3.70;;;18.90;95.30;;;;;;5029046;28;20399;-84
2020/12/14 11:28:03;;;;;;;27.20;4.15;;;18.80;95.50;;;;;;5055352;28;20406;-84
2020/12/14 11:30:30;;;;;;;23.45;4.00;;;18.80;95.70;;;;;;5048323;28;21026;-84
2020/12/14 11:32:57;;;;;;;24.30;4.07;;;18.70;95.80;;;;;;5048363;28;20390;-85
2020/12/14 11:35:25;;;;;;;23.73;3.78;;;18.70;95.60;;;;;;5045992;28;20412;-84
2020/12/14 11:37:52;;;;;;;26.48;4.18;;;18.70;95.90;;;;;;5024068;28;20475;-85
2020/12/14 11:40:19;;;;;;;26.55;3.92;;;18.60;96.00;;;;;;5044778;28;20408;-85
2020/12/14 11:42:46;;;;;;;23.05;3.35;;;18.60;96.10;;;;;;5046399;28;20408;-84
2020/12/14 11:45:13;;;;;;;24.85;4.13;;;18.60;95.80;;;;;;5043304;28;20404;-85
2020/12/14 11:47:40;;;;;;;18.63;3.63;;;18.60;95.80;;;;;;5019159;28;20521;-89
2020/12/14 11:50:07;;;;;;;21.17;3.50;;;18.60;96.00;;;;;;5032422;28;20416;-87
2020/12/14 11:52:34;;;;;;;17.80;3.60;;;18.60;95.90;;;;;;5057926;28;20394;-84
2020/12/14 11:55:06;;;;;;;20.50;3.67;;;18.60;95.80;;;;;;5048633;28;20431;-86
2020/12/14 11:57:33;;;;;;;23.95;3.42;;;18.60;95.80;;;;;;5038828;28;20881;-86
2020/12/14 12:00:00;;;;;;;26.15;3.85;;;18.70;95.70;;;;;;5044115;28;20807;-86
2020/12/14 12:02:28;;;;;;;23.10;3.95;;;18.70;95.50;;;;;;5039727;28;20397;-86
2020/12/14 12:04:55;;;;;;;21.42;3.50;;;18.70;95.40;;;;;;5032678;28;20399;-85
2020/12/14 12:07:22;;;;;;;22.90;3.65;;;18.70;95.20;;;;;;5036116;28;20484;-87
2020/12/14 12:09:49;;;;;;;23.67;4.13;;;18.70;95.20;;;;;;5038646;28;20414;-85
2020/12/14 12:12:16;;;;;;;19.65;3.28;;;18.70;95.30;;;;;;5030735;28;20484;-85
2020/12/14 12:14:43;;;;;;;22.10;3.60;;;18.70;95.30;;;;;;5039111;28;20972;-86
2020/12/14 12:17:10;;;;;;;25.00;3.97;;;18.70;95.50;;;;;;5037605;28;20399;-88
2020/12/14 12:19:37;;;;;;;20.55;3.42;;;18.70;95.50;;;;;;5031902;28;20380;-89
2020/12/14 12:22:04;;;;;;;22.13;3.72;;;18.60;95.90;;;;;;5044998;28;20395;-89
2020/12/14 12:24:31;;;;;;;23.65;3.88;;;18.40;96.00;;;;;;5041925;28;20398;-88
2020/12/14 12:26:58;;;;;;;29.02;4.15;;;18.30;96.40;;;;;;5045549;28;20399;-88
2020/12/14 12:29:25;;;;;;;19.90;3.42;;;18.20;96.70;;;;;;5032209;28;20422;-86
2020/12/14 12:31:55;;;;;;;18.75;3.78;;;18.10;96.90;;;;;;5028671;28;20384;-87
2020/12/14 12:34:22;;;;;;;22.23;3.95;;;18.10;97.20;;;;;;5038410;28;20477;-86
2020/12/14 12:36:53;;;;;;;20.90;3.45;;;18.10;97.40;;;;;;5047930;28;20394;-86
2020/12/14 12:39:20;;;;;;;22.80;3.50;;;18.00;97.40;;;;;;5031576;28;20900;-87
2020/12/14 12:41:49;;;;;;;20.65;3.45;;;18.00;97.70;;;;;;5048684;28;20392;-87
2020/12/14 12:44:17;;;;;;;26.52;3.90;;;18.10;97.90;;;;;;5025907;28;20412;-88
2020/12/14 12:46:44;;;;;;;24.00;4.00;;;18.10;98.10;;;;;;5046906;28;20763;-85
2020/12/14 12:49:11;;;;;;;19.20;3.22;;;18.10;97.70;;;;;;5014899;28;20416;-88